Time;durP1;ratioP1;P1;durP2;ratioP2;P2;SDS_P1;SDS_P2;PMS_P1;PMS_P2;Temp;Humidity;BMP_temperature;BMP_pressure;BME280_temperature;BME280_humidity;BME280_pressure;Samples;Min_cycle;Max_cycle;Signal;HPM_P1;HPM_P2
2022/01/08 00:00:42;;;;;;;8.49;6.79;;;;;;;-1.99;61.20;101938.55;451773;114;923070;-75
2022/01/08 00:01:45;;;;;;;7.75;6.90;;;;;;;-1.98;61.21;101939.39;442033;116;922643;-74
2022/01/08 00:02:49;;;;;;;7.30;6.54;;;;;;;-1.95;61.17;101944.55;443259;116;923260;-75
2022/01/08 00:03:52;;;;;;;5.16;4.64;;;;;;;-1.96;61.13;101948.17;443940;116;922823;-75
2022/01/08 00:04:57;;;;;;;10.08;6.31;;;;;;;-1.96;61.13;101942.83;452153;114;924020;-75
2022/01/08 00:06:00;;;;;;;6.37;5.78;;;;;;;-1.95;61.25;101942.73;442618;118;923685;-75
2022/01/08 00:07:04;;;;;;;5.11;4.61;;;;;;;-1.94;61.21;101939.11;451283;115;922726;-75
2022/01/08 00:08:08;;;;;;;5.24;4.78;;;;;;;-1.94;60.94;101938.25;452110;113;923036;-75
2022/01/08 00:09:11;;;;;;;5.20;4.70;;;;;;;-1.97;60.81;101930.41;450640;113;930666;-75
2022/01/08 00:10:16;;;;;;;6.53;5.84;;;;;;;-1.98;60.81;101929.55;449438;116;930645;-77
2022/01/08 00:11:24;;;;;;;6.36;5.76;;;;;;;-1.99;60.93;101932.35;449687;116;922533;-76
2022/01/08 00:12:25;;;;;;;6.50;5.89;;;;;;;-1.97;60.96;101938.43;451014;113;923133;-75
2022/01/08 00:13:28;;;;;;;6.99;6.33;;;;;;;-1.99;60.88;101933.22;451369;113;922505;-75
2022/01/08 00:14:32;;;;;;;7.57;6.66;;;;;;;-2.02;60.67;101930.72;440739;118;930771;-76
2022/01/08 00:15:36;;;;;;;7.53;6.74;;;;;;;-2.07;60.62;101929.31;442725;117;928545;-75
2022/01/08 00:16:39;;;;;;;10.48;6.73;;;;;;;-2.11;60.57;101932.20;443400;117;922806;-75
2022/01/08 00:17:43;;;;;;;7.10;6.40;;;;;;;-2.13;60.58;101936.77;452995;113;922598;-75
2022/01/08 00:18:46;;;;;;;9.13;6.87;;;;;;;-2.15;60.63;101932.51;443492;117;922654;-75
2022/01/08 00:19:51;;;;;;;7.01;6.36;;;;;;;-2.16;60.60;101936.13;442445;117;929044;-76
2022/01/08 00:20:54;;;;;;;7.81;6.61;;;;;;;-2.17;60.55;101935.27;443186;117;922681;-76
2022/01/08 00:21:58;;;;;;;6.09;5.28;;;;;;;-2.18;60.50;101938.03;444042;117;922653;-75
2022/01/08 00:23:01;;;;;;;7.46;6.62;;;;;;;-2.18;60.50;101933.55;441950;116;922853;-75
2022/01/08 00:24:05;;;;;;;6.83;6.17;;;;;;;-2.18;60.47;101936.22;450407;116;922542;-75
2022/01/08 00:25:09;;;;;;;6.87;6.17;;;;;;;-2.19;60.48;101931.83;451474;114;923665;-75
2022/01/08 00:26:14;;;;;;;7.32;6.54;;;;;;;-2.20;60.36;101930.11;451767;113;922958;-76
2022/01/08 00:27:18;;;;;;;9.15;6.36;;;;;;;-2.21;60.34;101931.09;452398;113;923041;-75
2022/01/08 00:28:22;;;;;;;7.21;5.79;;;;;;;-2.23;60.28;101924.98;451893;114;930798;-74
2022/01/08 00:29:25;;;;;;;8.12;7.11;;;;;;;-2.25;60.32;101929.55;451295;114;922648;-77
2022/01/08 00:30:30;;;;;;;7.66;6.54;;;;;;;-2.26;60.35;101927.01;452694;114;922546;-75
2022/01/08 00:31:33;;;;;;;7.54;6.73;;;;;;;-2.28;60.34;101927.09;442650;117;930581;-75
2022/01/08 00:32:37;;;;;;;8.99;7.03;;;;;;;-2.28;60.34;101926.23;451421;116;930534;-74
2022/01/08 00:33:40;;;;;;;10.14;7.78;;;;;;;-2.29;60.37;101932.53;450555;114;930603;-75
2022/01/08 00:34:44;;;;;;;7.84;7.00;;;;;;;-2.29;60.43;101928.05;451078;113;930688;-75
2022/01/08 00:35:47;;;;;;;9.70;7.68;;;;;;;-2.32;60.41;101944.28;451785;115;922920;-75
2022/01/08 00:36:50;;;;;;;7.63;6.53;;;;;;;-2.32;60.44;101941.62;450003;114;922606;-75
2022/01/08 00:37:54;;;;;;;8.72;6.81;;;;;;;-2.32;60.55;101948.77;451829;113;922626;-75
2022/01/08 00:38:57;;;;;;;7.78;6.96;;;;;;;-2.30;60.59;101953.04;450803;115;923358;-75
2022/01/08 00:40:01;;;;;;;8.64;7.39;;;;;;;-2.30;60.64;101944.16;450835;114;922754;-75
2022/01/08 00:41:05;;;;;;;8.51;7.06;;;;;;;-2.29;60.80;101952.09;449965;116;922560;-74
2022/01/08 00:42:08;;;;;;;7.61;6.52;;;;;;;-2.26;60.94;101945.70;451413;113;922923;-74
2022/01/08 00:43:11;;;;;;;7.81;7.02;;;;;;;-2.24;61.24;101947.30;442722;117;922686;-75
2022/01/08 00:44:16;;;;;;;8.83;7.67;;;;;;;-2.18;61.43;101956.73;452523;115;924986;-74
2022/01/08 00:45:19;;;;;;;9.09;7.71;;;;;;;-2.15;61.43;101953.88;451130;114;922598;-75
2022/01/08 00:46:23;;;;;;;9.24;8.33;;;;;;;-2.16;61.32;101950.34;442816;116;922485;-75
2022/01/08 00:47:27;;;;;;;8.01;7.21;;;;;;;-2.17;61.39;101959.31;450836;113;930920;-75
2022/01/08 00:48:30;;;;;;;8.96;7.97;;;;;;;-2.19;61.48;101955.87;452889;113;922867;-76
2022/01/08 00:49:34;;;;;;;9.63;7.78;;;;;;;-2.18;61.71;101952.25;450359;116;922604;-75
2022/01/08 00:50:37;;;;;;;10.26;8.56;;;;;;;-2.18;61.78;101952.25;451997;116;930536;-75
2022/01/08 00:51:41;;;;;;;8.55;7.59;;;;;;;-2.19;61.84;101949.67;452884;114;930577;-73
2022/01/08 00:52:44;;;;;;;9.65;7.26;;;;;;;-2.20;61.79;101947.95;451266;114;922713;-75
2022/01/08 00:53:47;;;;;;;8.89;6.41;;;;;;;-2.22;61.80;101952.55;451566;113;922514;-75
2022/01/08 00:54:50;;;;;;;7.27;6.44;;;;;;;-2.25;61.79;101948.25;452292;114;922638;-74
2022/01/08 00:55:54;;;;;;;6.74;5.72;;;;;;;-2.27;61.71;101946.66;451089;115;922596;-75
2022/01/08 00:56:58;;;;;;;6.28;5.34;;;;;;;-2.30;61.82;101942.36;452157;114;922639;-75
2022/01/08 00:58:01;;;;;;;5.86;5.06;;;;;;;-2.31;61.83;101948.65;450483;115;923405;-75
2022/01/08 00:59:05;;;;;;;5.44;4.57;;;;;;;-2.30;61.80;101945.02;450397;114;922705;-75
2022/01/08 01:00:11;;;;;;;8.94;5.11;;;;;;;-2.30;61.76;101944.16;452236;113;930668;-75
2022/01/08 01:01:15;;;;;;;6.53;5.34;;;;;;;-2.31;61.78;101945.97;442596;116;922662;-75
2022/01/08 01:02:19;;;;;;;6.74;4.39;;;;;;;-2.31;61.75;101948.65;444278;117;922625;-75
2022/01/08 01:03:23;;;;;;;6.01;5.03;;;;;;;-2.32;61.83;101946.95;441873;117;930724;-74
2022/01/08 01:04:26;;;;;;;6.12;4.96;;;;;;;-2.31;61.83;101939.77;442555;116;930503;-75
2022/01/08 01:05:30;;;;;;;7.14;4.85;;;;;;;-2.30;61.94;101942.36;451983;113;922618;-75
2022/01/08 01:06:34;;;;;;;5.06;4.28;;;;;;;-2.28;62.06;101947.61;442705;116;924259;-76
2022/01/08 01:07:37;;;;;;;4.90;4.46;;;;;;;-2.26;62.04;101949.20;442490;117;922461;-75
2022/01/08 01:08:41;;;;;;;5.40;4.22;;;;;;;-2.24;62.04;101949.11;451871;115;922902;-75
2022/01/08 01:09:44;;;;;;;5.62;4.93;;;;;;;-2.22;62.01;101952.55;450577;114;922604;-75
2022/01/08 01:10:47;;;;;;;4.62;3.97;;;;;;;-2.21;61.98;101947.12;452936;114;923254;-75
2022/01/08 01:11:57;;;;;;;5.46;4.65;;;;;;;-2.18;61.98;101946.05;449443;116;922657;-73
2022/01/08 01:12:56;;;;;;;5.62;4.45;;;;;;;-2.17;62.00;101951.30;450833;113;922637;-75
2022/01/08 01:13:59;;;;;;;5.97;5.04;;;;;;;-2.16;61.99;101945.01;453045;113;922896;-75
2022/01/08 01:15:04;;;;;;;6.34;4.94;;;;;;;-2.16;61.93;101945.01;451803;115;923058;-74
2022/01/08 01:16:08;;;;;;;6.64;5.33;;;;;;;-2.16;61.92;101946.81;451082;116;930529;-75
2022/01/08 01:17:11;;;;;;;5.91;5.31;;;;;;;-2.16;61.93;101953.02;443030;116;922751;-75
2022/01/08 01:18:15;;;;;;;5.39;4.58;;;;;;;-2.17;61.84;101950.44;452935;114;930758;-75
2022/01/08 01:19:18;;;;;;;5.46;4.22;;;;;;;-2.19;61.87;101944.33;453163;113;930677;-74
2022/01/08 01:20:22;;;;;;;5.86;4.29;;;;;;;-2.20;61.86;101946.14;451249;113;922639;-74
2022/01/08 01:21:26;;;;;;;5.25;3.78;;;;;;;-2.22;61.80;101937.39;442098;117;922658;-75
2022/01/08 01:22:40;;;;;;;4.41;3.85;;;;;;;-2.23;61.80;101942.82;442174;118;922802;-73
2022/01/08 01:23:39;;;;;;;4.18;3.56;;;;;;;-2.27;61.75;101947.52;450385;115;930587;-74
2022/01/08 01:24:40;;;;;;;4.15;3.75;;;;;;;-2.28;61.75;101939.59;441465;116;922792;-74
2022/01/08 01:25:56;;;;;;;5.38;4.03;;;;;;;-2.29;61.85;101932.53;442265;117;922807;-75
2022/01/08 01:27:24;;;;;;;4.75;3.95;;;;;;;-2.27;61.86;101943.98;441567;118;923246;-74
2022/01/08 01:28:26;;;;;;;4.77;3.72;;;;;;;-2.27;61.86;101944.84;449890;114;922742;-75
2022/01/08 01:41:12;;;;;;;5.87;5.17;;;;;;;-2.27;62.03;101950.19;451158;114;923402;-74
2022/01/08 01:41:24;;;;;;;7.48;5.68;;;;;;;-2.30;62.44;101960.19;451659;116;922689;-74
2022/01/08 01:42:42;;;;;;;8.95;5.51;;;;;;;-2.31;62.41;101958.47;450301;113;922720;-74
2022/01/08 01:46:59;;;;;;;8.32;5.26;;;;;;;-2.30;62.42;101960.19;450207;113;923099;-74
2022/01/08 01:47:35;;;;;;;10.39;6.34;;;;;;;-2.24;62.47;101957.12;442114;117;922770;-75
2022/01/08 01:48:39;;;;;;;6.61;5.08;;;;;;;-2.24;62.34;101960.66;451815;113;922908;-74
2022/01/08 01:49:45;;;;;;;7.22;5.20;;;;;;;-2.23;62.28;101961.52;450568;115;923190;-75
2022/01/08 01:50:49;;;;;;;7.82;5.86;;;;;;;-2.25;62.16;101964.28;450714;115;930588;-75
2022/01/08 01:51:52;;;;;;;7.79;5.89;;;;;;;-2.27;62.12;101954.67;449947;116;922704;-74
2022/01/08 01:52:55;;;;;;;6.80;5.30;;;;;;;-2.26;62.33;101959.06;452287;114;922794;-75
2022/01/08 01:53:59;;;;;;;7.79;5.50;;;;;;;-2.25;62.37;101961.61;450883;113;922771;-74
2022/01/08 01:55:04;;;;;;;9.08;6.45;;;;;;;-2.22;62.33;101957.90;451553;114;930759;-74
2022/01/08 01:56:08;;;;;;;8.09;6.12;;;;;;;-2.21;62.31;101960.48;442841;117;922560;-75
2022/01/08 01:57:13;;;;;;;8.58;7.01;;;;;;;-2.20;62.34;101956.83;442642;116;922717;-74
2022/01/08 01:58:17;;;;;;;7.16;6.44;;;;;;;-2.20;62.15;101963.98;442431;117;923290;-74
2022/01/08 01:59:20;;;;;;;8.49;6.08;;;;;;;-2.21;62.05;101967.64;443659;117;922673;-75
2022/01/08 02:00:24;;;;;;;7.37;5.99;;;;;;;-2.23;61.96;101972.20;444834;116;922560;-73
2022/01/08 02:01:27;;;;;;;7.33;5.72;;;;;;;-2.27;61.85;101968.03;445588;117;922719;-73
2022/01/08 02:02:31;;;;;;;8.90;6.49;;;;;;;-2.31;61.80;101980.70;451820;114;922710;-74
2022/01/08 02:03:35;;;;;;;7.26;6.15;;;;;;;-2.36;61.87;101973.94;442844;116;922586;-74
2022/01/08 02:04:38;;;;;;;9.14;6.48;;;;;;;-2.38;61.86;101970.53;450181;115;922762;-74
2022/01/08 02:05:42;;;;;;;8.48;6.25;;;;;;;-2.42;61.95;101976.99;450749;116;922902;-74
2022/01/08 02:06:47;;;;;;;6.74;5.93;;;;;;;-2.45;61.89;101974.53;450015;115;923074;-74
2022/01/08 02:07:50;;;;;;;8.37;6.68;;;;;;;-2.48;62.01;101972.90;451507;116;922488;-74
2022/01/08 02:08:53;;;;;;;8.86;6.20;;;;;;;-2.49;61.98;101970.34;451883;113;922550;-74
2022/01/08 02:09:57;;;;;;;7.26;5.46;;;;;;;-2.52;62.07;101974.92;442583;117;922848;-74
2022/01/08 02:11:00;;;;;;;11.79;5.57;;;;;;;-2.53;62.12;101969.66;451793;113;930624;-74
2022/01/08 02:12:06;;;;;;;7.08;5.66;;;;;;;-2.55;62.19;101968.92;452166;113;922547;-74
2022/01/08 02:13:09;;;;;;;7.03;5.72;;;;;;;-2.56;62.25;101976.08;451940;113;930562;-74
2022/01/08 02:14:13;;;;;;;6.23;5.31;;;;;;;-2.58;62.31;101964.63;449757;116;922791;-74
2022/01/08 02:15:16;;;;;;;5.84;4.78;;;;;;;-2.58;62.32;101974.44;451125;113;922836;-74
2022/01/08 02:16:20;;;;;;;7.30;5.08;;;;;;;-2.60;62.31;101971.89;451687;114;922646;-74
2022/01/08 02:17:23;;;;;;;6.09;5.36;;;;;;;-2.61;62.39;101969.31;451149;115;922563;-73
2022/01/08 02:18:28;;;;;;;6.46;5.53;;;;;;;-2.62;62.38;101971.12;450230;116;922743;-74
2022/01/08 02:19:31;;;;;;;6.42;5.07;;;;;;;-2.62;62.42;101976.45;451191;114;922954;-74
2022/01/08 02:20:34;;;;;;;5.94;5.04;;;;;;;-2.61;62.52;101975.51;442684;116;930569;-75
2022/01/08 02:21:38;;;;;;;5.91;4.88;;;;;;;-2.60;62.65;101976.37;442201;117;930930;-72
2022/01/08 02:22:41;;;;;;;5.19;4.58;;;;;;;-2.60;62.77;101979.90;450444;113;922643;-74
2022/01/08 02:23:46;;;;;;;7.47;4.59;;;;;;;-2.59;62.82;101980.77;449883;115;923034;-73
2022/01/08 02:24:50;;;;;;;5.88;4.91;;;;;;;-2.59;62.90;101973.58;442771;116;922683;-74
2022/01/08 02:26:07;;;;;;;5.18;4.68;;;;;;;-2.58;62.75;101982.45;451777;115;930528;-73
2022/01/08 02:27:10;;;;;;;5.47;4.95;;;;;;;-2.59;62.78;101976.25;443069;117;922759;-74
2022/01/08 02:28:13;;;;;;;5.24;4.75;;;;;;;-2.59;62.73;101976.25;444347;117;922993;-74
2022/01/08 02:29:19;;;;;;;5.51;4.50;;;;;;;-2.58;62.78;101982.45;442925;116;922632;-74
2022/01/08 02:30:24;;;;;;;5.46;4.95;;;;;;;-2.57;62.83;101979.70;444751;116;922572;-74
2022/01/08 02:31:27;;;;;;;5.37;4.49;;;;;;;-2.56;62.73;101981.41;452091;113;923116;-74
2022/01/08 02:32:31;;;;;;;7.04;4.65;;;;;;;-2.55;62.70;101984.95;449478;116;922655;-74
2022/01/08 02:33:36;;;;;;;5.28;4.35;;;;;;;-2.57;62.64;101994.85;451114;113;922881;-74
2022/01/08 02:34:41;;;;;;;5.01;4.44;;;;;;;-2.57;62.69;101992.19;451914;113;922622;-74
2022/01/08 02:35:45;;;;;;;4.95;4.48;;;;;;;-2.56;62.87;101996.58;451312;115;922416;-74
2022/01/08 02:36:49;;;;;;;5.67;5.15;;;;;;;-2.54;62.97;101998.17;450511;115;922608;-72
2022/01/08 02:37:53;;;;;;;5.65;5.10;;;;;;;-2.53;62.89;101988.36;452061;116;922659;-74
2022/01/08 02:38:57;;;;;;;6.21;5.61;;;;;;;-2.52;62.82;101987.41;450478;113;923390;-74
2022/01/08 02:40:02;;;;;;;5.97;5.37;;;;;;;-2.52;62.79;101993.61;451169;113;922768;-74
2022/01/08 02:41:06;;;;;;;6.62;5.56;;;;;;;-2.52;62.79;101990.08;441148;118;922688;-74
2022/01/08 02:42:13;;;;;;;6.23;5.51;;;;;;;-2.52;62.92;101988.27;441988;116;922963;-74
2022/01/08 02:43:17;;;;;;;5.79;5.21;;;;;;;-2.52;62.87;101992.75;442171;116;922912;-74
2022/01/08 02:44:22;;;;;;;6.19;5.44;;;;;;;-2.52;62.79;101998.09;451075;113;922735;-74
2022/01/08 02:45:26;;;;;;;6.44;5.79;;;;;;;-2.53;62.80;102007.91;449639;116;930690;-75
2022/01/08 02:46:30;;;;;;;6.99;5.88;;;;;;;-2.53;62.72;102009.72;450312;114;922623;-73
2022/01/08 02:47:33;;;;;;;8.36;7.53;;;;;;;-2.55;62.69;102011.65;441778;117;922985;-74
2022/01/08 02:48:36;;;;;;;7.46;6.67;;;;;;;-2.55;62.77;102011.65;451901;113;922683;-72
2022/01/08 02:49:40;;;;;;;8.26;7.31;;;;;;;-2.54;62.92;102011.53;449036;116;922643;-75
2022/01/08 02:50:43;;;;;;;8.98;8.13;;;;;;;-2.49;63.07;102015.75;450100;115;922570;-73
2022/01/08 02:51:47;;;;;;;9.53;8.57;;;;;;;-2.47;63.12;102009.34;452291;114;930511;-74
2022/01/08 02:52:51;;;;;;;8.94;8.07;;;;;;;-2.45;62.93;102017.27;452454;115;922680;-74
2022/01/08 02:53:54;;;;;;;7.14;6.44;;;;;;;-2.46;62.69;102023.55;450168;113;930519;-74
2022/01/08 02:54:58;;;;;;;7.21;6.49;;;;;;;-2.49;62.72;102021.09;441053;119;922697;-73
2022/01/08 02:56:01;;;;;;;7.17;6.47;;;;;;;-2.52;62.73;102020.31;441019;117;922763;-74
2022/01/08 02:57:04;;;;;;;8.02;7.27;;;;;;;-2.55;62.68;102023.19;439141;119;923318;-74
2022/01/08 02:58:08;;;;;;;8.85;8.01;;;;;;;-2.57;62.57;102021.55;441008;117;922639;-75
2022/01/08 02:59:13;;;;;;;9.41;8.32;;;;;;;-2.60;62.50;102027.09;440195;117;930577;-74
2022/01/08 03:00:18;;;;;;;10.14;8.60;;;;;;;-2.64;62.53;102029.08;440760;118;922753;-73
2022/01/08 03:01:22;;;;;;;9.36;8.44;;;;;;;-2.65;62.55;102029.20;440812;118;922859;-73
2022/01/08 03:02:25;;;;;;;8.61;7.44;;;;;;;-2.67;62.66;102026.61;432553;119;922631;-72
2022/01/08 03:03:29;;;;;;;8.09;7.08;;;;;;;-2.67;62.75;102034.63;435794;120;922599;-73
2022/01/08 03:04:33;;;;;;;7.64;6.87;;;;;;;-2.65;62.80;102040.73;434885;119;930617;-74
2022/01/08 03:05:36;;;;;;;9.25;8.36;;;;;;;-2.63;62.88;102043.28;440867;118;931165;-74
2022/01/08 03:06:41;;;;;;;9.64;7.06;;;;;;;-2.62;62.87;102042.34;440284;117;922639;-74
2022/01/08 03:07:46;;;;;;;8.52;7.46;;;;;;;-2.61;62.71;102038.72;439517;118;930545;-74
2022/01/08 03:08:50;;;;;;;7.36;6.48;;;;;;;-2.63;62.77;102036.14;439878;117;922629;-73
2022/01/08 03:09:56;;;;;;;9.24;6.95;;;;;;;-2.65;62.65;102031.87;439966;118;922832;-74
2022/01/08 03:11:00;;;;;;;8.08;7.28;;;;;;;-2.67;62.69;102028.42;440630;117;922760;-74
2022/01/08 03:12:04;;;;;;;9.09;6.98;;;;;;;-2.69;62.69;102028.51;439679;117;922649;-73
2022/01/08 03:13:07;;;;;;;8.48;7.08;;;;;;;-2.71;62.64;102034.91;439014;119;922666;-74
2022/01/08 03:14:11;;;;;;;9.01;7.46;;;;;;;-2.73;62.62;102042.14;439808;117;922636;-75
2022/01/08 03:15:16;;;;;;;13.98;7.97;;;;;;;-2.76;62.58;102045.02;440955;118;922485;-74
2022/01/08 03:16:20;;;;;;;9.34;7.52;;;;;;;-2.80;62.58;102038.98;438361;119;930511;-73
2022/01/08 03:17:24;;;;;;;8.60;7.27;;;;;;;-2.85;62.56;102041.08;441210;117;922585;-74
2022/01/08 03:18:27;;;;;;;9.88;7.86;;;;;;;-2.87;62.68;102037.66;440134;118;922646;-75
2022/01/08 03:19:30;;;;;;;8.68;7.36;;;;;;;-2.89;62.70;102041.36;442260;117;923079;-75
2022/01/08 03:20:46;;;;;;;8.37;7.04;;;;;;;-2.91;62.76;102040.58;440315;118;922585;-74
2022/01/08 03:21:44;;;;;;;8.91;7.07;;;;;;;-2.92;62.83;102038.89;440094;117;922786;-73
2022/01/08 03:22:47;;;;;;;8.04;6.61;;;;;;;-2.93;62.83;102042.50;440084;118;922774;-73
2022/01/08 03:23:59;;;;;;;7.96;6.11;;;;;;;-2.95;62.90;102042.59;441089;119;922623;-75
2022/01/08 03:25:01;;;;;;;9.51;7.06;;;;;;;-2.95;62.92;102048.78;439765;119;923321;-75
2022/01/08 03:26:05;;;;;;;8.35;6.91;;;;;;;-2.95;63.00;102048.78;440881;117;922966;-73
2022/01/08 03:27:08;;;;;;;8.92;7.34;;;;;;;-2.92;63.01;102054.91;439820;117;930736;-75
2022/01/08 03:28:12;;;;;;;8.92;8.06;;;;;;;-2.93;63.04;102055.84;441008;118;922966;-74
2022/01/08 03:29:15;;;;;;;8.42;7.34;;;;;;;-2.93;63.24;102050.52;440481;117;922587;-75
2022/01/08 03:30:18;;;;;;;8.96;8.09;;;;;;;-2.91;63.33;102059.27;439647;117;922718;-74
2022/01/08 03:31:23;;;;;;;10.15;8.62;;;;;;;-2.89;63.48;102055.56;440500;118;922513;-73
2022/01/08 03:32:26;;;;;;;9.39;8.21;;;;;;;-2.84;63.72;102052.61;440158;118;922793;-73
2022/01/08 03:33:30;;;;;;;8.98;8.08;;;;;;;-2.80;63.83;102055.00;440903;117;922720;-74
2022/01/08 03:34:33;;;;;;;8.86;7.92;;;;;;;-2.77;63.58;102057.50;439834;117;922527;-74
2022/01/08 03:35:37;;;;;;;11.74;8.77;;;;;;;-2.76;63.35;102053.88;439452;118;922581;-74
2022/01/08 03:36:40;;;;;;;8.91;7.97;;;;;;;-2.76;63.20;102061.03;439770;118;922929;-74
2022/01/08 03:37:43;;;;;;;8.34;7.53;;;;;;;-2.77;63.18;102067.31;440454;118;924150;-73
2022/01/08 03:38:48;;;;;;;8.17;7.34;;;;;;;-2.76;63.24;102067.23;438941;117;922703;-73
2022/01/08 03:39:51;;;;;;;10.72;8.51;;;;;;;-2.78;63.17;102057.58;441048;117;922710;-74
2022/01/08 03:40:55;;;;;;;10.29;9.13;;;;;;;-2.81;63.22;102060.45;441978;117;922914;-74
2022/01/08 03:41:58;;;;;;;12.21;9.26;;;;;;;-2.82;63.25;102061.39;441627;118;922623;-74
2022/01/08 03:43:01;;;;;;;10.13;9.01;;;;;;;-2.86;63.16;102065.17;433440;121;923331;-73
2022/01/08 03:44:04;;;;;;;11.43;9.56;;;;;;;-2.89;63.22;102060.05;431966;119;922773;-74
2022/01/08 03:45:08;;;;;;;11.48;9.20;;;;;;;-2.91;63.27;102057.45;441327;118;922717;-74
2022/01/08 03:46:13;;;;;;;12.39;8.28;;;;;;;-2.93;63.24;102058.52;441234;118;930865;-74
2022/01/08 03:47:30;;;;;;;10.57;8.76;;;;;;;-2.95;63.17;102064.80;439793;119;922519;-74
2022/01/08 03:48:30;;;;;;;10.69;8.28;;;;;;;-2.98;63.10;102064.13;439565;119;922608;-75
2022/01/08 03:49:32;;;;;;;9.18;8.11;;;;;;;-3.01;63.07;102062.49;434289;119;922683;-75
2022/01/08 03:50:36;;;;;;;9.30;8.29;;;;;;;-3.05;63.09;102063.63;440683;118;922890;-73
2022/01/08 03:51:40;;;;;;;9.54;8.44;;;;;;;-3.08;63.12;102069.14;440707;117;922634;-74
2022/01/08 03:52:45;;;;;;;9.99;8.21;;;;;;;-3.11;63.17;102064.00;439992;118;930707;-71
2022/01/08 03:53:49;;;;;;;9.76;7.96;;;;;;;-3.12;63.17;102064.08;440216;117;922622;-74
2022/01/08 03:54:52;;;;;;;9.79;8.23;;;;;;;-3.14;63.28;102063.33;441840;116;922606;-73
2022/01/08 03:55:55;;;;;;;9.76;8.78;;;;;;;-3.16;63.39;102063.41;441503;116;922962;-73
2022/01/08 03:56:59;;;;;;;10.89;8.59;;;;;;;-3.16;63.40;102065.22;441118;118;923361;-73
2022/01/08 03:58:02;;;;;;;9.28;7.79;;;;;;;-3.18;63.50;102059.97;442182;116;922566;-75
2022/01/08 03:59:06;;;;;;;10.17;8.51;;;;;;;-3.19;63.54;102066.24;441819;117;922708;-73
2022/01/08 04:00:10;;;;;;;8.82;7.91;;;;;;;-3.19;63.51;102066.24;442884;116;922677;-73
2022/01/08 04:01:17;;;;;;;9.19;7.49;;;;;;;-3.20;63.55;102059.22;441960;116;922614;-73
2022/01/08 04:02:20;;;;;;;9.36;8.46;;;;;;;-3.20;63.49;102069.89;441461;116;922660;-73
2022/01/08 04:03:24;;;;;;;8.72;7.82;;;;;;;-3.20;63.53;102069.89;440323;117;922745;-73
2022/01/08 04:04:27;;;;;;;9.90;8.72;;;;;;;-3.20;63.55;102080.55;442718;116;922675;-74
2022/01/08 04:05:31;;;;;;;9.65;8.61;;;;;;;-3.20;63.61;102079.70;442220;116;922653;-73
2022/01/08 04:06:35;;;;;;;7.87;7.06;;;;;;;-3.21;63.79;102081.50;443145;116;923040;-74
2022/01/08 04:07:38;;;;;;;9.01;8.11;;;;;;;-3.17;63.94;102083.03;442241;117;923072;-75
2022/01/08 04:08:42;;;;;;;11.19;8.68;;;;;;;-3.13;63.96;102081.03;443893;116;930572;-75
2022/01/08 04:09:45;;;;;;;10.99;9.26;;;;;;;-3.11;63.92;102082.67;440301;116;922623;-74
2022/01/08 04:10:49;;;;;;;11.93;8.97;;;;;;;-3.10;64.00;102079.06;441108;116;930692;-74
2022/01/08 04:11:52;;;;;;;10.36;9.31;;;;;;;-3.08;63.98;102078.95;442515;116;930574;-74
2022/01/08 04:13:01;;;;;;;10.88;9.79;;;;;;;-3.08;63.88;102079.81;443323;116;922742;-74
2022/01/08 04:14:01;;;;;;;10.02;9.02;;;;;;;-3.09;63.76;102083.42;441071;117;930553;-74
2022/01/08 04:15:09;;;;;;;11.57;9.69;;;;;;;-3.11;63.70;102087.14;442333;116;922670;-74
2022/01/08 04:16:16;;;;;;;11.07;9.68;;;;;;;-3.14;63.71;102085.50;441487;116;923223;-74
2022/01/08 04:17:17;;;;;;;9.49;8.57;;;;;;;-3.14;63.82;102087.34;441317;117;923120;-73
2022/01/08 04:18:20;;;;;;;12.01;9.50;;;;;;;-3.14;63.93;102079.34;442593;116;922604;-74
2022/01/08 04:19:24;;;;;;;10.97;9.91;;;;;;;-3.13;63.83;102078.36;442339;118;922624;-74
2022/01/08 04:20:27;;;;;;;12.20;9.23;;;;;;;-3.15;63.75;102078.47;441257;116;930228;-74
2022/01/08 04:22:39;;;;;;;9.98;8.57;;;;;;;-3.17;63.68;102083.03;441924;116;930128;-74
2022/01/08 04:23:42;;;;;;;10.08;9.08;;;;;;;-3.19;63.60;102082.25;441148;116;922613;-74
2022/01/08 04:24:45;;;;;;;9.77;8.77;;;;;;;-3.20;63.57;102085.03;441197;117;922600;-74
2022/01/08 04:25:49;;;;;;;9.20;7.83;;;;;;;-3.23;63.56;102083.38;441599;117;930607;-73
2022/01/08 04:26:53;;;;;;;10.65;9.54;;;;;;;-3.26;63.67;102072.91;441967;117;922730;-74
2022/01/08 04:27:56;;;;;;;12.24;10.19;;;;;;;-3.28;63.65;102082.80;441339;116;922567;-74
2022/01/08 04:28:59;;;;;;;12.52;11.30;;;;;;;-3.29;63.69;102074.88;442864;117;922609;-74
2022/01/08 04:30:04;;;;;;;15.23;12.24;;;;;;;-3.31;63.76;102080.33;442206;117;923466;-75
2022/01/08 04:31:07;;;;;;;18.21;12.50;;;;;;;-3.32;63.79;102075.94;442941;117;925702;-74
2022/01/08 04:32:11;;;;;;;14.21;11.26;;;;;;;-3.32;63.79;102083.07;440915;118;922607;-74
2022/01/08 04:33:14;;;;;;;14.81;10.31;;;;;;;-3.32;63.85;102091.94;442140;116;923062;-74
2022/01/08 04:34:18;;;;;;;14.50;10.89;;;;;;;-3.28;64.02;102089.94;442750;117;922896;-73
2022/01/08 04:35:21;;;;;;;12.12;9.61;;;;;;;-3.25;64.09;102098.61;441753;116;922647;-74
2022/01/08 04:36:25;;;;;;;13.76;11.41;;;;;;;-3.20;64.15;102098.36;442091;118;922577;-74
2022/01/08 04:37:28;;;;;;;13.62;10.79;;;;;;;-3.17;64.09;102107.03;441166;116;922553;-75
2022/01/08 04:38:34;;;;;;;11.99;9.54;;;;;;;-3.16;64.02;102105.23;442571;116;923060;-75
2022/01/08 04:39:38;;;;;;;12.37;10.09;;;;;;;-3.16;64.06;102103.42;441649;117;922571;-73
2022/01/08 04:40:41;;;;;;;15.06;10.61;;;;;;;-3.16;64.06;102106.09;442881;116;922590;-73
2022/01/08 04:41:45;;;;;;;14.56;11.40;;;;;;;-3.17;63.96;102106.17;440507;118;922727;-73
2022/01/08 04:42:49;;;;;;;12.65;10.43;;;;;;;-3.19;63.92;102111.59;441571;116;922783;-73
2022/01/08 04:43:52;;;;;;;12.65;10.38;;;;;;;-3.20;63.89;102115.23;441756;116;922971;-72
2022/01/08 04:44:56;;;;;;;13.95;10.46;;;;;;;-3.21;63.97;102104.64;441646;116;922617;-74
2022/01/08 04:46:00;;;;;;;10.93;9.67;;;;;;;-3.20;63.95;102109.90;441748;117;923222;-73
2022/01/08 04:47:04;;;;;;;11.86;9.56;;;;;;;-3.18;64.06;102115.98;441643;116;922625;-74
2022/01/08 04:48:07;;;;;;;10.58;8.73;;;;;;;-3.19;63.97;102114.26;441718;117;930601;-73
2022/01/08 04:49:11;;;;;;;10.84;9.74;;;;;;;-3.20;63.92;102112.56;440806;116;923758;-72
2022/01/08 04:50:14;;;;;;;11.57;9.03;;;;;;;-3.20;63.95;102117.90;442864;117;930622;-73
2022/01/08 04:51:17;;;;;;;12.87;9.88;;;;;;;-3.21;63.89;102121.51;442502;116;925926;-74
2022/01/08 04:52:21;;;;;;;12.81;10.19;;;;;;;-3.22;63.87;102126.92;442240;116;922539;-74
2022/01/08 04:53:24;;;;;;;11.84;9.71;;;;;;;-3.25;63.82;102119.94;441207;116;922711;-74
2022/01/08 04:54:27;;;;;;;10.69;9.61;;;;;;;-3.27;63.72;102124.53;442948;118;923021;-73
2022/01/08 04:55:31;;;;;;;13.77;11.19;;;;;;;-3.29;63.66;102128.22;443996;116;922970;-72
2022/01/08 04:56:34;;;;;;;12.54;10.84;;;;;;;-3.33;63.62;102135.55;440762;117;930533;-74
2022/01/08 04:57:37;;;;;;;14.41;10.79;;;;;;;-3.33;63.62;102135.55;442926;116;930501;-73
2022/01/08 04:58:41;;;;;;;14.22;11.06;;;;;;;-3.37;63.68;102132.20;443160;116;923630;-74
2022/01/08 04:59:44;;;;;;;11.58;10.29;;;;;;;-3.40;63.69;102126.16;442083;116;922569;-75
2022/01/08 05:00:47;;;;;;;16.21;10.64;;;;;;;-3.42;63.79;102128.91;443044;116;922954;-73
2022/01/08 05:01:51;;;;;;;12.88;11.09;;;;;;;-3.44;63.87;102122.83;442510;117;930374;-74
2022/01/08 05:02:54;;;;;;;14.56;11.93;;;;;;;-3.42;64.14;102122.75;442531;116;923093;-73
2022/01/08 05:03:58;;;;;;;13.76;10.95;;;;;;;-3.38;64.27;102124.28;442182;116;930382;-73
2022/01/08 05:05:02;;;;;;;13.09;11.28;;;;;;;-3.33;64.31;102130.21;442171;116;930378;-74
2022/01/08 05:06:05;;;;;;;17.61;10.66;;;;;;;-3.31;64.22;102122.99;442075;117;930499;-73
2022/01/08 05:07:08;;;;;;;12.71;10.28;;;;;;;-3.29;64.15;102128.22;441855;116;922852;-73
2022/01/08 05:08:12;;;;;;;18.82;11.58;;;;;;;-3.29;64.14;102136.22;441445;116;922668;-75